createdAt,value
2018-05-01T00:04:48.680Z,4.27
2018-05-01T00:09:51.151Z,8.37
2018-05-01T00:14:53.730Z,4.17
2018-05-01T00:19:56.319Z,4.10
2018-05-01T00:24:58.886Z,4.83
2018-05-01T00:30:01.692Z,4.93
2018-05-01T00:35:04.141Z,3.50
2018-05-01T00:40:06.612Z,3.23
2018-05-01T00:45:09.098Z,3.30
2018-05-01T00:50:11.557Z,3.10
2018-05-01T00:55:14.034Z,3.00
2018-05-01T01:00:16.612Z,2.67
2018-05-01T01:05:19.075Z,2.57
2018-05-01T01:10:21.553Z,2.70
2018-05-01T01:15:24.068Z,1.90
2018-05-01T01:20:26.543Z,2.80
2018-05-01T01:25:29.137Z,2.00
2018-05-01T01:30:31.614Z,2.23
2018-05-01T01:35:33.546Z,2.03
2018-05-01T01:40:35.496Z,2.10
2018-05-01T01:45:37.453Z,1.73
2018-05-01T01:50:39.378Z,1.90
2018-05-01T01:55:42.008Z,1.83
2018-05-01T02:00:43.980Z,1.60
2018-05-01T02:05:45.922Z,2.13
2018-05-01T02:10:47.884Z,1.80
2018-05-01T02:15:49.849Z,2.07
2018-05-01T02:20:51.839Z,1.93
2018-05-01T02:25:53.842Z,1.70
2018-05-01T02:30:55.776Z,2.10
2018-05-01T02:35:57.727Z,2.27
2018-05-01T02:40:59.667Z,2.03
2018-05-01T02:46:01.600Z,2.20
2018-05-01T02:51:03.524Z,2.40
2018-05-01T02:56:05.452Z,2.20
2018-05-01T03:01:07.388Z,1.90
2018-05-01T03:06:09.322Z,2.10
2018-05-01T03:11:11.239Z,2.30
2018-05-01T03:16:13.170Z,2.20
2018-05-01T03:21:15.109Z,2.20
2018-05-01T03:26:17.054Z,2.07
2018-05-01T03:31:18.977Z,1.40
2018-05-01T03:36:20.969Z,1.20
2018-05-01T03:41:22.944Z,0.90
2018-05-01T03:46:25.010Z,0.83
2018-05-01T03:51:26.977Z,1.03
2018-05-01T03:56:28.957Z,0.90
2018-05-01T04:01:30.877Z,0.73
2018-05-01T04:06:32.809Z,0.80
2018-05-01T04:11:34.759Z,0.90
2018-05-01T04:16:36.694Z,0.80
2018-05-01T04:21:38.615Z,0.73
2018-05-01T04:26:40.572Z,1.00
2018-05-01T04:31:42.506Z,0.77
2018-05-01T04:36:44.493Z,0.77
2018-05-01T04:41:46.426Z,0.70
2018-05-01T04:46:48.349Z,1.00
2018-05-01T04:51:50.602Z,0.80
2018-05-01T04:56:52.522Z,0.53
2018-05-01T05:01:54.520Z,0.60
2018-05-01T05:06:56.522Z,0.50
2018-05-01T05:11:58.498Z,0.90
2018-05-01T05:17:00.433Z,0.37
2018-05-01T05:22:02.404Z,0.50
2018-05-01T05:27:04.336Z,0.60
2018-05-01T05:32:06.269Z,0.50
2018-05-01T05:37:08.309Z,0.50
2018-05-01T05:42:10.245Z,0.60
2018-05-01T05:47:12.175Z,0.60
2018-05-01T05:52:14.112Z,0.63
2018-05-01T05:57:16.078Z,0.50
2018-05-01T06:02:18.094Z,0.60
2018-05-01T06:07:20.057Z,1.07
2018-05-01T06:12:22.028Z,0.60
2018-05-01T06:17:24.021Z,0.60
2018-05-01T06:22:26.859Z,0.60
2018-05-01T06:27:28.852Z,0.60
2018-05-01T06:32:30.801Z,0.50
2018-05-01T06:37:32.772Z,0.70
2018-05-01T06:42:34.652Z,0.70
2018-05-01T06:47:36.586Z,0.60
2018-05-01T06:52:38.513Z,0.73
2018-05-01T06:57:40.439Z,0.50
2018-05-01T07:02:42.349Z,0.80
2018-05-01T07:07:44.370Z,0.80
2018-05-01T07:12:46.282Z,0.47
2018-05-01T07:17:48.184Z,0.70
2018-05-01T07:22:50.942Z,0.60
2018-05-01T07:27:52.926Z,0.50
2018-05-01T07:32:54.916Z,0.40
2018-05-01T07:37:56.875Z,0.60
2018-05-01T07:42:58.912Z,0.40
2018-05-01T07:48:00.859Z,0.40
2018-05-01T07:53:02.789Z,0.50
2018-05-01T07:58:04.803Z,0.20
2018-05-01T08:03:06.711Z,0.73
2018-05-01T08:08:08.652Z,0.50
2018-05-01T08:13:10.721Z,0.53
2018-05-01T08:18:12.642Z,0.37
2018-05-01T08:23:14.572Z,0.50
2018-05-01T08:28:16.508Z,0.73
2018-05-01T08:33:18.564Z,0.50
2018-05-01T08:38:20.720Z,0.60
2018-05-01T08:43:22.676Z,0.50
2018-05-01T08:48:24.666Z,0.40
2018-05-01T08:53:26.630Z,0.40
2018-05-01T08:58:28.582Z,0.30
2018-05-01T09:03:30.551Z,0.60
2018-05-01T09:08:32.556Z,0.43
2018-05-01T09:13:34.599Z,0.43
2018-05-01T09:18:36.543Z,0.80
2018-05-01T09:23:38.581Z,0.30
2018-05-01T09:28:40.495Z,0.27
2018-05-01T09:33:42.403Z,0.57
2018-05-01T09:38:44.334Z,0.50
2018-05-01T09:43:46.343Z,0.40
2018-05-01T09:48:48.265Z,0.30
2018-05-01T09:53:50.754Z,0.60
2018-05-01T09:58:53.319Z,0.40
2018-05-01T10:03:55.791Z,0.43
2018-05-01T10:08:58.256Z,0.40
2018-05-01T10:14:00.739Z,0.70
2018-05-01T10:19:03.254Z,0.20
2018-05-01T10:24:05.708Z,0.47
2018-05-01T10:29:08.161Z,0.47
2018-05-01T10:34:10.633Z,0.30
2018-05-01T10:39:13.119Z,0.40
2018-05-01T10:44:15.687Z,0.50
2018-05-01T10:49:18.153Z,0.50
2018-05-01T10:54:20.618Z,0.30
2018-05-01T10:59:23.098Z,0.40
2018-05-01T11:04:31.938Z,0.30
2018-05-01T11:09:39.022Z,0.50
2018-05-01T11:14:41.899Z,0.50
2018-05-01T11:19:44.525Z,0.40
2018-05-01T11:24:46.986Z,0.40
2018-05-01T11:29:49.439Z,0.90
2018-05-01T11:34:51.924Z,0.40
2018-05-01T11:39:54.418Z,0.53
2018-05-01T11:44:57.420Z,0.43
2018-05-01T11:50:00.110Z,0.50
2018-05-01T11:55:02.707Z,0.60
2018-05-01T12:00:05.192Z,0.50
2018-05-01T12:05:08.134Z,0.60
2018-05-01T12:10:10.928Z,0.53
2018-05-01T12:15:13.391Z,0.40
2018-05-01T12:20:15.839Z,0.40
2018-05-01T12:25:18.404Z,0.43
2018-05-01T12:30:20.911Z,0.50
2018-05-01T12:35:23.424Z,0.53
2018-05-01T12:40:25.922Z,0.43
2018-05-01T12:45:28.754Z,0.30
2018-05-01T12:50:31.258Z,0.50
2018-05-01T12:55:33.721Z,0.27
2018-05-01T13:00:36.196Z,0.77
2018-05-01T13:05:38.738Z,0.50
2018-05-01T13:10:41.188Z,0.40
2018-05-01T13:15:43.720Z,0.40
2018-05-01T13:20:46.190Z,0.30
2018-05-01T13:25:48.660Z,0.70
2018-05-01T13:30:51.119Z,0.50
2018-05-01T13:35:53.598Z,0.30
2018-05-01T13:40:56.127Z,0.40
2018-05-01T13:45:58.614Z,0.43
2018-05-01T13:51:01.079Z,0.30
2018-05-01T13:56:03.535Z,0.40
2018-05-01T14:01:06.012Z,0.40
2018-05-01T14:06:08.484Z,0.47
2018-05-01T14:11:10.938Z,0.40
2018-05-01T14:16:13.425Z,0.40
2018-05-01T14:21:15.882Z,0.73
2018-05-01T14:26:18.353Z,0.40
2018-05-01T14:31:20.826Z,0.40
2018-05-01T14:36:23.311Z,0.37
2018-05-01T14:41:25.788Z,0.40
2018-05-01T14:46:28.462Z,0.40
2018-05-01T14:51:31.628Z,0.50
2018-05-01T14:56:34.253Z,0.30
2018-05-01T15:01:36.949Z,0.40
2018-05-01T15:06:39.506Z,0.50
2018-05-01T15:11:41.984Z,0.50
2018-05-01T15:16:44.456Z,0.57
2018-05-01T15:21:46.903Z,1.30
2018-05-01T15:26:49.389Z,0.80
2018-05-01T15:31:51.863Z,0.50
2018-05-01T15:36:54.339Z,0.60
2018-05-01T15:41:56.847Z,0.50
2018-05-01T15:46:59.356Z,0.50
2018-05-01T15:52:01.829Z,1.23
2018-05-01T15:57:04.286Z,0.60
2018-05-01T16:02:06.742Z,0.40
2018-05-01T16:07:09.200Z,0.67
2018-05-01T16:12:11.676Z,0.50
2018-05-01T16:17:15.372Z,0.50
2018-05-01T16:22:17.837Z,0.67
2018-05-01T16:27:23.249Z,0.70
2018-05-01T16:32:25.725Z,0.70
2018-05-01T16:37:28.218Z,0.87
2018-05-01T16:42:31.136Z,0.60
2018-05-01T16:47:33.618Z,0.80
2018-05-01T16:52:46.606Z,0.60
2018-05-01T16:57:58.015Z,0.80
2018-05-01T17:03:00.868Z,0.90
2018-05-01T17:08:03.369Z,0.80
2018-05-01T17:13:05.824Z,0.53
2018-05-01T17:18:08.513Z,0.60
2018-05-01T17:23:10.970Z,0.90
2018-05-01T17:28:13.446Z,0.60
2018-05-01T17:33:15.915Z,0.80
2018-05-01T17:38:18.403Z,0.60
2018-05-01T17:43:20.947Z,0.73
2018-05-01T17:48:23.433Z,1.10
2018-05-01T17:53:25.921Z,1.23
2018-05-01T17:58:28.402Z,1.03
2018-05-01T18:03:30.948Z,0.93
2018-05-01T18:08:33.420Z,0.90
2018-05-01T18:13:35.990Z,0.80
2018-05-01T18:18:38.440Z,0.77
2018-05-01T18:23:40.923Z,1.20
2018-05-01T18:28:43.371Z,1.00
2018-05-01T18:33:45.973Z,0.93
2018-05-01T18:38:48.461Z,1.00
2018-05-01T18:43:50.932Z,0.90
2018-05-01T18:48:54.040Z,0.80
2018-05-01T18:53:56.572Z,0.90
2018-05-01T18:59:00.474Z,0.70
2018-05-01T19:04:03.167Z,1.00
2018-05-01T19:09:06.581Z,1.40
2018-05-01T19:14:10.866Z,0.87
2018-05-01T19:19:13.376Z,0.90
2018-05-01T19:29:43.171Z,0.77
2018-05-01T19:34:45.672Z,1.50
2018-05-01T19:39:48.197Z,1.37
2018-05-01T19:44:50.751Z,1.40
2018-05-01T19:49:53.249Z,1.33
2018-05-01T19:54:55.821Z,2.10
2018-05-01T19:59:58.348Z,1.00
2018-05-01T20:05:00.866Z,1.33
2018-05-01T20:10:03.356Z,1.00
2018-05-01T20:15:05.776Z,1.80
2018-05-01T20:20:08.239Z,1.03
2018-05-01T20:25:10.749Z,1.70
2018-05-01T20:30:13.214Z,1.50
2018-05-01T20:35:16.224Z,1.43
2018-05-01T20:40:18.822Z,1.40
2018-05-01T20:45:21.325Z,1.90
2018-05-01T20:50:26.755Z,1.77
2018-05-01T20:55:31.409Z,1.50
2018-05-01T21:00:34.037Z,1.57
2018-05-01T21:05:36.518Z,1.63
2018-05-01T21:10:39.215Z,1.40
2018-05-01T21:15:41.777Z,1.67
2018-05-01T21:20:44.237Z,1.53
2018-05-01T21:25:46.698Z,1.90
2018-05-01T21:30:49.161Z,1.77
2018-05-01T21:35:51.620Z,2.00
2018-05-01T21:40:54.077Z,2.10
2018-05-01T21:45:56.701Z,1.97
2018-05-01T21:50:59.148Z,2.00
2018-05-01T21:56:01.727Z,1.90
2018-05-01T22:01:04.219Z,2.20
2018-05-01T22:06:06.691Z,2.10
2018-05-01T22:11:09.210Z,2.03
2018-05-01T22:16:11.705Z,2.17
2018-05-01T22:21:14.172Z,2.57
2018-05-01T22:26:16.736Z,2.10
2018-05-01T22:31:19.185Z,2.50
2018-05-01T22:36:21.677Z,2.20
2018-05-01T22:41:24.118Z,3.10
2018-05-01T22:46:26.627Z,2.47
2018-05-01T22:51:29.206Z,2.80
2018-05-01T22:56:31.671Z,2.60
2018-05-01T23:01:34.175Z,2.87
2018-05-01T23:06:37.585Z,2.10
2018-05-01T23:11:40.056Z,2.57
2018-05-01T23:16:42.637Z,2.90
2018-05-01T23:21:45.078Z,2.80
2018-05-01T23:26:47.545Z,2.70
2018-05-01T23:31:50.022Z,2.70
2018-05-01T23:36:52.527Z,2.90
2018-05-01T23:41:54.985Z,2.43
2018-05-01T23:46:57.445Z,2.83
2018-05-01T23:51:59.921Z,2.70
2018-05-01T23:57:02.420Z,3.03
